Time;durP1;ratioP1;P1;durP2;ratioP2;P2;SDS_P1;SDS_P2;PMS_P1;PMS_P2;Temp;Humidity;BMP_temperature;BMP_pressure;BME280_temperature;BME280_humidity;BME280_pressure;Samples;Min_cycle;Max_cycle;Signal;HPM_P1;HPM_P2
2022/12/05 00:00:21;;;;;;;;;;;;;;;;;;5096952;28;19919;-73
2022/12/05 00:02:47;;;;;;;;;;;;;;;;;;5096570;28;19908;-73
2022/12/05 00:05:13;;;;;;;;;;;;;;;;;;5097335;28;20299;-73
2022/12/05 00:07:39;;;;;;;;;;;;;;;;;;5095584;28;20002;-73
2022/12/05 00:10:05;;;;;;;;;;;;;;;;;;5096351;28;19969;-73
2022/12/05 00:12:31;;;;;;;;;;;;;;;;;;5096779;28;19912;-73
2022/12/05 00:14:57;;;;;;;;;;;;;;;;;;5096881;28;19908;-73
2022/12/05 00:17:23;;;;;;;;;;;;;;;;;;5096256;28;19954;-73
2022/12/05 00:19:49;;;;;;;;;;;;;;;;;;5096732;28;20406;-73
2022/12/05 00:22:15;;;;;;;;;;;;;;;;;;5096207;28;20357;-74
2022/12/05 00:24:41;;;;;;;;;;;;;;;;;;5096578;28;20354;-73
2022/12/05 00:27:07;;;;;;;;;;;;;;;;;;5096416;28;19950;-72
2022/12/05 00:29:33;;;;;;;;;;;;;;;;;;5095934;28;19916;-73
2022/12/05 00:31:59;;;;;;;;;;;;;;;;;;5096364;28;19932;-73
2022/12/05 00:34:25;;;;;;;;;;;;;;;;;;5096301;28;19915;-73
2022/12/05 00:36:51;;;;;;;;;;;;;;;;;;5095853;28;19908;-73
2022/12/05 00:39:17;;;;;;;;;;;;;;;;;;5096495;28;19908;-73
2022/12/05 00:41:43;;;;;;;;;;;;;;;;;;5096220;28;19908;-73
2022/12/05 00:44:09;;;;;;;;;;;;;;;;;;5094381;28;19915;-73
2022/12/05 00:46:35;;;;;;;;;;;;;;;;;;5095898;28;19920;-73
2022/12/05 00:49:00;;;;;;;;;;;;;;;;;;5095670;28;19916;-73
2022/12/05 00:51:27;;;;;;;;;;;;;;;;;;5095836;28;20279;-73
2022/12/05 00:53:53;;;;;;;;;;;;;;;;;;5096072;28;20352;-74
2022/12/05 00:56:19;;;;;;;;;;;;;;;;;;5094580;28;19915;-72
2022/12/05 00:58:45;;;;;;;;;;;;;;;;;;5095726;28;19908;-73
2022/12/05 01:01:10;;;;;;;;;;;;;;;;;;5095803;28;20365;-73
2022/12/05 01:03:36;;;;;;;;;;;;;;;;;;5095948;28;20379;-73
2022/12/05 01:06:04;;;;;;;;;;;;;;;;;;5095257;28;19915;-73
2022/12/05 01:08:30;;;;;;;;;;;;;;;;;;5094231;28;20361;-73
2022/12/05 01:10:56;;;;;;;;;;;;;;;;;;5095628;28;19915;-72
2022/12/05 01:13:22;;;;;;;;;;;;;;;;;;5095242;28;19947;-73
2022/12/05 01:15:48;;;;;;;;;;;;;;;;;;5095485;28;19908;-72
2022/12/05 01:18:14;;;;;;;;;;;;;;;;;;5095389;28;19908;-72
2022/12/05 01:20:40;;;;;;;;;;;;;;;;;;5095083;28;19908;-73
2022/12/05 01:23:06;;;;;;;;;;;;;;;;;;5094065;28;19954;-73
2022/12/05 01:25:32;;;;;;;;;;;;;;;;;;5095234;28;19908;-72
2022/12/05 01:27:58;;;;;;;;;;;;;;;;;;5095111;28;19931;-72
2022/12/05 01:30:24;;;;;;;;;;;;;;;;;;5095212;28;19915;-72
2022/12/05 01:32:50;;;;;;;;;;;;;;;;;;5095035;28;19948;-73
2022/12/05 01:35:16;;;;;;;;;;;;;;;;;;5093845;28;19915;-73
2022/12/05 01:37:42;;;;;;;;;;;;;;;;;;5095140;28;19957;-73
2022/12/05 01:40:08;;;;;;;;;;;;;;;;;;5093334;28;19915;-73
2022/12/05 01:42:34;;;;;;;;;;;;;;;;;;5095064;28;20417;-73
2022/12/05 01:44:59;;;;;;;;;;;;;;;;;;5093689;28;20003;-72
2022/12/05 01:47:25;;;;;;;;;;;;;;;;;;5094311;28;19927;-72
2022/12/05 01:49:53;;;;;;;;;;;;;;;;;;5095347;28;20341;-72
2022/12/05 01:52:19;;;;;;;;;;;;;;;;;;5094778;28;19915;-72
2022/12/05 01:54:45;;;;;;;;;;;;;;;;;;5094328;28;20302;-73
2022/12/05 01:57:11;;;;;;;;;;;;;;;;;;5093474;28;19969;-74
2022/12/05 01:59:36;;;;;;;;;;;;;;;;;;5094265;28;19915;-74
2022/12/05 02:02:02;;;;;;;;;;;;;;;;;;5094043;28;19944;-73
2022/12/05 02:04:28;;;;;;;;;;;;;;;;;;5094590;28;19954;-74
2022/12/05 02:06:54;;;;;;;;;;;;;;;;;;5094570;28;19908;-73
2022/12/05 02:09:20;;;;;;;;;;;;;;;;;;5094105;28;19916;-74
2022/12/05 02:11:46;;;;;;;;;;;;;;;;;;5093220;28;19937;-73
2022/12/05 02:14:12;;;;;;;;;;;;;;;;;;5094494;28;19950;-73
2022/12/05 02:16:38;;;;;;;;;;;;;;;;;;5092717;28;19908;-73
2022/12/05 02:19:04;;;;;;;;;;;;;;;;;;5094385;28;20410;-73
2022/12/05 02:21:30;;;;;;;;;;;;;;;;;;5094298;28;19908;-73
2022/12/05 02:23:56;;;;;;;;;;;;;;;;;;5093926;28;20388;-73
2022/12/05 02:26:22;;;;;;;;;;;;;;;;;;5092951;28;20269;-73
2022/12/05 02:28:48;;;;;;;;;;;;;;;;;;5094713;28;20014;-73
2022/12/05 02:31:14;;;;;;;;;;;;;;;;;;5093746;28;19908;-73
2022/12/05 02:33:40;;;;;;;;;;;;;;;;;;5094202;28;20379;-73
2022/12/05 02:36:06;;;;;;;;;;;;;;;;;;5093701;28;19908;-74
2022/12/05 02:38:32;;;;;;;;;;;;;;;;;;5094036;28;20013;-74
2022/12/05 02:40:58;;;;;;;;;;;;;;;;;;5092842;28;19949;-73
2022/12/05 02:43:24;;;;;;;;;;;;;;;;;;5092337;28;19915;-73
2022/12/05 02:45:50;;;;;;;;;;;;;;;;;;5093850;28;19980;-73
2022/12/05 02:48:16;;;;;;;;;;;;;;;;;;5093922;28;19915;-73
2022/12/05 02:50:42;;;;;;;;;;;;;;;;;;5093903;28;19916;-73
2022/12/05 02:53:07;;;;;;;;;;;;;;;;;;5094150;28;19912;-73
2022/12/05 02:55:33;;;;;;;;;;;;;;;;;;5093971;28;20387;-73
2022/12/05 02:57:59;;;;;;;;;;;;;;;;;;5092185;28;20008;-73
2022/12/05 03:00:25;;;;;;;;;;;;;;;;;;5093837;28;19908;-73
2022/12/05 03:02:51;;;;;;;;;;;;;;;;;;5093835;28;19912;-73
2022/12/05 03:05:17;;;;;;;;;;;;;;;;;;5093484;28;19908;-73
2022/12/05 03:07:43;;;;;;;;;;;;;;;;;;5093838;28;20318;-73
2022/12/05 03:10:09;;;;;;;;;;;;;;;;;;5093695;28;19970;-73
2022/12/05 03:12:35;;;;;;;;;;;;;;;;;;5096295;28;19908;-73
2022/12/05 03:15:01;;;;;;;;;;;;;;;;;;5097973;28;19919;-73
2022/12/05 03:17:27;;;;;;;;;;;;;;;;;;5098313;28;19940;-73
2022/12/05 03:19:53;;;;;;;;;;;;;;;;;;5097426;28;19914;-73
2022/12/05 03:22:19;;;;;;;;;;;;;;;;;;5096456;28;19915;-73
2022/12/05 03:24:45;;;;;;;;;;;;;;;;;;5096417;28;20327;-72
2022/12/05 03:27:11;;;;;;;;;;;;;;;;;;5097228;28;20279;-73
2022/12/05 03:29:37;;;;;;;;;;;;;;;;;;5097527;28;19938;-73
2022/12/05 03:32:03;;;;;;;;;;;;;;;;;;5097587;28;19966;-73
2022/12/05 03:34:29;;;;;;;;;;;;;;;;;;5097071;28;19915;-73
2022/12/05 03:36:54;;;;;;;;;;;;;;;;;;5097612;28;20378;-73
2022/12/05 03:39:20;;;;;;;;;;;;;;;;;;5097041;28;19999;-73
2022/12/05 03:41:46;;;;;;;;;;;;;;;;;;5097881;28;19908;-73
2022/12/05 03:44:12;;;;;;;;;;;;;;;;;;5096136;28;19908;-74
2022/12/05 03:46:38;;;;;;;;;;;;;;;;;;5095423;28;20364;-73
2022/12/05 03:49:04;;;;;;;;;;;;;;;;;;5095866;28;19916;-73
2022/12/05 03:51:30;;;;;;;;;;;;;;;;;;5095928;28;19908;-73
2022/12/05 03:53:56;;;;;;;;;;;;;;;;;;5096847;28;19947;-74
2022/12/05 03:56:22;;;;;;;;;;;;;;;;;;5095834;28;19909;-74
2022/12/05 03:58:48;;;;;;;;;;;;;;;;;;5097014;28;19935;-73
2022/12/05 04:01:14;;;;;;;;;;;;;;;;;;5096574;28;19915;-74
2022/12/05 04:03:40;;;;;;;;;;;;;;;;;;5096918;28;19916;-73
2022/12/05 04:06:06;;;;;;;;;;;;;;;;;;5096876;28;19908;-71
2022/12/05 04:08:32;;;;;;;;;;;;;;;;;;5095141;28;19923;-73
2022/12/05 04:10:58;;;;;;;;;;;;;;;;;;5096986;28;19908;-74
2022/12/05 04:13:24;;;;;;;;;;;;;;;;;;5096877;28;19915;-73
2022/12/05 04:18:35;;;;;;;;;;;;;;;;;;5096714;28;19915;-73
2022/12/05 04:25:31;;;;;;;;;;;;;;;;;;5095504;28;19915;-73
2022/12/05 04:26:31;;;;;;;;;;;;;;;;;;5096461;28;19997;-73
2022/12/05 04:28:57;;;;;;;;;;;;;;;;;;5096004;28;20328;-73
2022/12/05 04:31:23;;;;;;;;;;;;;;;;;;5096366;28;19908;-73
2022/12/05 04:33:49;;;;;;;;;;;;;;;;;;5095024;28;19908;-72
2022/12/05 04:36:15;;;;;;;;;;;;;;;;;;5096329;28;19961;-73
2022/12/05 04:38:41;;;;;;;;;;;;;;;;;;5096274;28;19912;-73
2022/12/05 04:41:07;;;;;;;;;;;;;;;;;;5096454;28;19946;-73
2022/12/05 04:43:33;;;;;;;;;;;;;;;;;;5095758;28;19951;-73
2022/12/05 04:45:59;;;;;;;;;;;;;;;;;;5095933;28;20028;-73
2022/12/05 04:48:25;;;;;;;;;;;;;;;;;;5095994;28;19916;-73
2022/12/05 04:50:51;;;;;;;;;;;;;;;;;;5095638;28;19908;-74
2022/12/05 04:53:17;;;;;;;;;;;;;;;;;;5094740;28;19962;-74
2022/12/05 04:55:43;;;;;;;;;;;;;;;;;;5095973;28;19999;-74
2022/12/05 04:58:09;;;;;;;;;;;;;;;;;;5095462;28;19908;-74
2022/12/05 05:00:35;;;;;;;;;;;;;;;;;;5095867;28;20378;-74
2022/12/05 05:03:00;;;;;;;;;;;;;;;;;;5095815;28;19908;-74
2022/12/05 05:05:26;;;;;;;;;;;;;;;;;;5095321;28;19931;-73
2022/12/05 05:07:52;;;;;;;;;;;;;;;;;;5095638;28;19962;-74
2022/12/05 05:10:18;;;;;;;;;;;;;;;;;;5095536;28;19923;-75
2022/12/05 05:12:44;;;;;;;;;;;;;;;;;;5095193;28;19954;-74
2022/12/05 05:15:10;;;;;;;;;;;;;;;;;;5095856;28;19908;-74
2022/12/05 05:17:36;;;;;;;;;;;;;;;;;;5094217;28;19909;-74
2022/12/05 05:22:47;;;;;;;;;;;;;;;;;;5095471;28;19915;-74
2022/12/05 05:25:13;;;;;;;;;;;;;;;;;;5094882;28;19912;-74
2022/12/05 05:27:39;;;;;;;;;;;;;;;;;;5095666;28;20326;-74
2022/12/05 05:30:05;;;;;;;;;;;;;;;;;;5095145;28;19963;-71
2022/12/05 05:32:31;;;;;;;;;;;;;;;;;;5094880;28;19908;-73
2022/12/05 05:34:56;;;;;;;;;;;;;;;;;;5092836;28;19908;-72
2022/12/05 05:37:22;;;;;;;;;;;;;;;;;;5095068;28;19915;-73
2022/12/05 05:39:48;;;;;;;;;;;;;;;;;;5094638;28;19908;-72
2022/12/05 05:42:14;;;;;;;;;;;;;;;;;;5093733;28;19946;-73
2022/12/05 05:44:40;;;;;;;;;;;;;;;;;;5094986;28;19912;-72
2022/12/05 05:47:06;;;;;;;;;;;;;;;;;;5094350;28;19920;-73
2022/12/05 05:49:32;;;;;;;;;;;;;;;;;;5094808;28;19917;-72
2022/12/05 05:51:58;;;;;;;;;;;;;;;;;;5094827;28;20292;-72
2022/12/05 05:54:24;;;;;;;;;;;;;;;;;;5094366;28;19908;-72
2022/12/05 05:56:50;;;;;;;;;;;;;;;;;;5093478;28;19908;-74
2022/12/05 05:59:16;;;;;;;;;;;;;;;;;;5093464;28;19908;-74
2022/12/05 06:01:42;;;;;;;;;;;;;;;;;;5092961;28;19916;-74
2022/12/05 06:04:08;;;;;;;;;;;;;;;;;;5094636;28;19908;-73
2022/12/05 06:06:34;;;;;;;;;;;;;;;;;;5094430;28;20352;-73
2022/12/05 06:09:00;;;;;;;;;;;;;;;;;;5094189;28;19923;-73
2022/12/05 06:11:26;;;;;;;;;;;;;;;;;;5094508;28;19915;-73
2022/12/05 06:13:52;;;;;;;;;;;;;;;;;;5092996;28;19961;-73
2022/12/05 06:16:18;;;;;;;;;;;;;;;;;;5092637;28;19908;-77
2022/12/05 06:18:44;;;;;;;;;;;;;;;;;;5092526;28;19908;-78
2022/12/05 06:21:10;;;;;;;;;;;;;;;;;;5094130;28;19912;-84
2022/12/05 06:23:36;;;;;;;;;;;;;;;;;;5086542;28;19908;-82
2022/12/05 06:26:02;;;;;;;;;;;;;;;;;;5085420;28;20016;-79
2022/12/05 06:28:27;;;;;;;;;;;;;;;;;;5090464;28;19920;-83
2022/12/05 06:30:53;;;;;;;;;;;;;;;;;;5091177;28;19912;-80
2022/12/05 06:33:19;;;;;;;;;;;;;;;;;;5093319;28;20011;-75
2022/12/05 06:35:45;;;;;;;;;;;;;;;;;;5091874;28;19908;-76
2022/12/05 06:38:11;;;;;;;;;;;;;;;;;;5080848;28;19913;-75
2022/12/05 06:40:37;;;;;;;;;;;;;;;;;;5070775;28;19908;-76
2022/12/05 06:43:03;;;;;;;;;;;;;;;;;;5095177;28;19961;-76
2022/12/05 06:45:29;;;;;;;;;;;;;;;;;;5108256;28;19919;-71
2022/12/05 06:47:55;;;;;;;;;;;;;;;;;;5102101;28;19996;-69
2022/12/05 06:50:21;;;;;;;;;;;;;;;;;;5089713;28;19920;-71
2022/12/05 06:52:47;;;;;;;;;;;;;;;;;;5090288;28;19908;-69
2022/12/05 06:55:14;;;;;;;;;;;;;;;;;;5089076;28;20556;-69
2022/12/05 06:57:40;;;;;;;;;;;;;;;;;;5086876;28;20538;-67
2022/12/05 07:02:50;;;;;;;;;;;;;;;;;;5078644;28;19916;-68
2022/12/05 07:05:16;;;;;;;;;;;;;;;;;;5088208;28;19909;-68
2022/12/05 07:07:42;;;;;;;;;;;;;;;;;;5087340;28;19916;-67
2022/12/05 07:10:08;;;;;;;;;;;;;;;;;;5101220;28;19919;-67
2022/12/05 07:12:34;;;;;;;;;;;;;;;;;;5098522;28;20360;-69
2022/12/05 07:15:00;;;;;;;;;;;;;;;;;;5089660;28;19915;-68
2022/12/05 07:17:26;;;;;;;;;;;;;;;;;;5088569;28;19908;-68
2022/12/05 07:19:52;;;;;;;;;;;;;;;;;;5090215;28;19918;-68
2022/12/05 07:22:18;;;;;;;;;;;;;;;;;;5081303;28;19909;-71
2022/12/05 07:24:44;;;;;;;;;;;;;;;;;;5070922;28;19915;-68
2022/12/05 07:27:10;;;;;;;;;;;;;;;;;;5074886;28;19923;-69
2022/12/05 07:29:36;;;;;;;;;;;;;;;;;;5092399;28;19943;-70
2022/12/05 07:32:02;;;;;;;;;;;;;;;;;;5091251;28;19912;-70
2022/12/05 07:34:28;;;;;;;;;;;;;;;;;;5092560;28;19915;-69
2022/12/05 07:36:54;;;;;;;;;;;;;;;;;;5085151;28;20490;-69
2022/12/05 07:39:20;;;;;;;;;;;;;;;;;;5089835;28;19908;-67
2022/12/05 07:41:45;;;;;;;;;;;;;;;;;;5092683;28;20003;-69
2022/12/05 07:44:11;;;;;;;;;;;;;;;;;;5091946;28;19912;-69
2022/12/05 07:46:37;;;;;;;;;;;;;;;;;;5088307;28;19943;-69
2022/12/05 07:49:03;;;;;;;;;;;;;;;;;;5089698;28;20364;-69
2022/12/05 07:51:29;;;;;;;;;;;;;;;;;;5089740;28;20264;-68
2022/12/05 07:53:55;;;;;;;;;;;;;;;;;;5090169;28;19981;-69
2022/12/05 07:56:21;;;;;;;;;;;;;;;;;;5090730;28;19916;-69
2022/12/05 07:58:47;;;;;;;;;;;;;;;;;;5091426;28;19965;-71
2022/12/05 08:01:14;;;;;;;;;;;;;;;;;;5094440;28;19920;-70
2022/12/05 08:03:40;;;;;;;;;;;;;;;;;;5095782;28;19914;-71
2022/12/05 08:06:06;;;;;;;;;;;;;;;;;;5095180;28;19908;-74
2022/12/05 08:08:32;;;;;;;;;;;;;;;;;;5095934;28;19927;-69
2022/12/05 08:10:58;;;;;;;;;;;;;;;;;;5095381;28;19915;-68
2022/12/05 08:13:24;;;;;;;;;;;;;;;;;;5091046;28;19919;-72
2022/12/05 08:15:50;;;;;;;;;;;;;;;;;;5095379;28;19908;-73
2022/12/05 08:18:16;;;;;;;;;;;;;;;;;;5093885;28;19908;-72
2022/12/05 08:20:42;;;;;;;;;;;;;;;;;;5091655;28;19912;-73
2022/12/05 08:23:08;;;;;;;;;;;;;;;;;;5100332;28;19912;-71
2022/12/05 08:25:34;;;;;;;;;;;;;;;;;;5093692;28;19908;-74
2022/12/05 08:27:59;;;;;;;;;;;;;;;;;;5093396;28;20390;-72
2022/12/05 08:30:25;;;;;;;;;;;;;;;;;;5093423;28;19922;-74
2022/12/05 08:32:51;;;;;;;;;;;;;;;;;;5093999;28;19919;-71
2022/12/05 08:35:17;;;;;;;;;;;;;;;;;;5092266;28;19919;-75
2022/12/05 08:37:43;;;;;;;;;;;;;;;;;;5093947;28;19908;-70
2022/12/05 08:40:09;;;;;;;;;;;;;;;;;;5094512;28;19915;-74
2022/12/05 08:42:35;;;;;;;;;;;;;;;;;;5094511;28;19914;-73
2022/12/05 08:45:02;;;;;;;;;;;;;;;;;;5091888;28;19912;-73
2022/12/05 08:47:28;;;;;;;;;;;;;;;;;;5087414;28;19931;-72
2022/12/05 08:49:54;;;;;;;;;;;;;;;;;;5092411;28;20579;-73
2022/12/05 08:52:21;;;;;;;;;;;;;;;;;;5101213;28;19969;-72
2022/12/05 08:54:47;;;;;;;;;;;;;;;;;;5111916;28;19907;-73
2022/12/05 08:57:13;;;;;;;;;;;;;;;;;;5112613;28;19963;-71
2022/12/05 08:59:39;;;;;;;;;;;;;;;;;;5113361;28;19947;-68
2022/12/05 09:02:05;;;;;;;;;;;;;;;;;;5112543;28;19908;-70
2022/12/05 09:04:31;;;;;;;;;;;;;;;;;;5113807;28;19912;-71
2022/12/05 09:06:57;;;;;;;;;;;;;;;;;;5113603;28;19908;-71
2022/12/05 09:09:23;;;;;;;;;;;;;;;;;;5111564;28;19920;-71
2022/12/05 09:11:49;;;;;;;;;;;;;;;;;;5110931;28;19914;-71
2022/12/05 09:14:15;;;;;;;;;;;;;;;;;;5111866;28;20049;-70
2022/12/05 09:16:41;;;;;;;;;;;;;;;;;;5111934;28;19947;-72
2022/12/05 09:19:07;;;;;;;;;;;;;;;;;;5109112;28;19919;-71
2022/12/05 09:21:33;;;;;;;;;;;;;;;;;;5111295;28;19935;-72
2022/12/05 09:23:59;;;;;;;;;;;;;;;;;;5112900;28;19931;-71
2022/12/05 09:26:25;;;;;;;;;;;;;;;;;;5111812;28;19915;-73
2022/12/05 09:28:51;;;;;;;;;;;;;;;;;;5112853;28;19924;-72
2022/12/05 09:31:17;;;;;;;;;;;;;;;;;;5112021;28;19908;-72
2022/12/05 09:33:43;;;;;;;;;;;;;;;;;;5112335;28;19908;-73
2022/12/05 09:36:09;;;;;;;;;;;;;;;;;;5112461;28;19908;-72
2022/12/05 09:38:35;;;;;;;;;;;;;;;;;;5098676;28;19915;-72
2022/12/05 09:41:01;;;;;;;;;;;;;;;;;;5091758;28;20392;-71
2022/12/05 09:43:27;;;;;;;;;;;;;;;;;;5092989;28;19920;-73
2022/12/05 09:45:53;;;;;;;;;;;;;;;;;;5092755;28;19924;-70
2022/12/05 09:48:19;;;;;;;;;;;;;;;;;;5093721;28;19916;-73
2022/12/05 09:50:45;;;;;;;;;;;;;;;;;;5080562;28;19917;-71
2022/12/05 09:53:12;;;;;;;;;;;;;;;;;;5071597;28;19962;-68
2022/12/05 09:55:38;;;;;;;;;;;;;;;;;;5055109;28;19909;-68
2022/12/05 09:58:04;;;;;;;;;;;;;;;;;;5053310;28;19916;-70
2022/12/05 10:00:30;;;;;;;;;;;;;;;;;;5059893;28;20004;-71
2022/12/05 10:02:56;;;;;;;;;;;;;;;;;;5064544;28;19909;-69
2022/12/05 10:05:22;;;;;;;;;;;;;;;;;;5055079;28;19970;-71
2022/12/05 10:07:48;;;;;;;;;;;;;;;;;;5072646;28;19916;-70
2022/12/05 10:10:14;;;;;;;;;;;;;;;;;;5054581;28;19970;-70
2022/12/05 10:12:40;;;;;;;;;;;;;;;;;;5034289;28;19909;-71
2022/12/05 10:15:06;;;;;;;;;;;;;;;;;;5043727;28;20373;-71
2022/12/05 10:17:32;;;;;;;;;;;;;;;;;;5068475;28;20331;-73
2022/12/05 10:19:57;;;;;;;;;;;;;;;;;;5054833;28;19947;-73
2022/12/05 10:22:23;;;;;;;;;;;;;;;;;;5053283;28;19955;-73
2022/12/05 10:24:49;;;;;;;;;;;;;;;;;;5072723;28;19909;-73
2022/12/05 10:27:15;;;;;;;;;;;;;;;;;;5041268;28;19995;-71
2022/12/05 10:29:41;;;;;;;;;;;;;;;;;;5052408;28;19920;-73
2022/12/05 10:32:07;;;;;;;;;;;;;;;;;;5072535;28;19962;-73
2022/12/05 10:34:33;;;;;;;;;;;;;;;;;;5090500;28;19908;-75
2022/12/05 10:36:59;;;;;;;;;;;;;;;;;;5078664;28;19978;-83
2022/12/05 10:39:25;;;;;;;;;;;;;;;;;;5072740;28;19913;-72
2022/12/05 10:41:51;;;;;;;;;;;;;;;;;;5072009;28;19912;-72
2022/12/05 10:44:17;;;;;;;;;;;;;;;;;;5071572;28;19957;-72
2022/12/05 10:46:43;;;;;;;;;;;;;;;;;;5077696;28;20387;-72
2022/12/05 10:49:09;;;;;;;;;;;;;;;;;;5089228;28;20363;-73
2022/12/05 10:51:35;;;;;;;;;;;;;;;;;;5088569;28;19908;-72
2022/12/05 10:54:01;;;;;;;;;;;;;;;;;;5087182;28;19912;-71
2022/12/05 10:56:27;;;;;;;;;;;;;;;;;;5078102;28;19915;-71
2022/12/05 10:58:54;;;;;;;;;;;;;;;;;;5086634;28;19908;-72
2022/12/05 11:01:20;;;;;;;;;;;;;;;;;;5089433;28;19914;-71
2022/12/05 11:03:46;;;;;;;;;;;;;;;;;;5091203;28;20339;-73
2022/12/05 11:06:57;;;;;;;;;;;;;;;;;;5108388;27;20344;-71
2022/12/05 11:09:23;;;;;;;;;;;;;;;;;;5107275;28;19922;-72
2022/12/05 11:14:56;;;;;;;;;;;;;;;;;;5083013;28;19922;-69
2022/12/05 11:19:37;;;;;;;;;;;;;;;;;;5107793;27;19916;-72
2022/12/05 11:26:06;;;;;;;;;;;;;;;;;;5152058;27;19918;-70
2022/12/05 11:30:35;;;;;;;;;;;;;;;;;;5089486;27;20380;-72
2022/12/05 11:33:01;;;;;;;;;;;;;;;;;;5085163;28;19912;-71
2022/12/05 11:36:55;;;;;;;;;;;;;;;;;;5108702;27;20273;-73
2022/12/05 11:39:21;;;;;;;;;;;;;;;;;;5108158;28;19919;-72
2022/12/05 11:43:29;;;;;;;;;;;;;;;;;;5089751;27;19913;-70
2022/12/05 11:46:38;;;;;;;;;;;;;;;;;;5088333;27;19916;-68
2022/12/05 11:50:03;;;;;;;;;;;;;;;;;;5089418;28;19916;-68
2022/12/05 11:54:45;;;;;;;;;;;;;;;;;;5110938;27;19912;-68
2022/12/05 11:57:11;;;;;;;;;;;;;;;;;;5110743;28;19998;-70
2022/12/05 11:59:37;;;;;;;;;;;;;;;;;;5108866;28;19908;-70
2022/12/05 12:02:03;;;;;;;;;;;;;;;;;;5110577;28;19919;-70
2022/12/05 12:04:29;;;;;;;;;;;;;;;;;;5110022;28;19912;-70
2022/12/05 12:09:35;;;;;;;;;;;;;;;;;;5086089;27;20464;-69
2022/12/05 12:13:52;;;;;;;;;;;;;;;;;;5106179;27;19916;-69
2022/12/05 12:17:56;;;;;;;;;;;;;;;;;;5103567;27;19922;-71
2022/12/05 12:20:23;;;;;;;;;;;;;;;;;;5087825;28;19920;-71
2022/12/05 12:22:49;;;;;;;;;;;;;;;;;;5090299;28;19930;-70
2022/12/05 12:25:15;;;;;;;;;;;;;;;;;;5089643;28;19916;-71
2022/12/05 12:27:41;;;;;;;;;;;;;;;;;;5088292;28;19915;-70
2022/12/05 12:30:07;;;;;;;;;;;;;;;;;;5089596;28;20391;-70
2022/12/05 12:34:59;;;;;;;;;;;;;;;;;;5108054;27;19934;-71
2022/12/05 12:37:48;;;;;;;;;;;;;;;;;;5100233;27;19927;-70
2022/12/05 12:40:14;;;;;;;;;;;;;;;;;;5104173;28;19912;-71
2022/12/05 12:43:09;;;;;;;;;;;;;;;;;;5156707;27;19923;-71
2022/12/05 12:45:35;;;;;;;;;;;;;;;;;;5133111;27;19915;-70
2022/12/05 12:48:01;;;;;;;;;;;;;;;;;;5148252;27;19961;-69
2022/12/05 12:52:27;;;;;;;;;;;;;;;;;;5135570;27;20620;-69
2022/12/05 12:54:53;;;;;;;;;;;;;;;;;;5126358;28;20003;-69
2022/12/05 12:59:08;;;;;;;;;;;;;;;;;;5068686;28;19920;-69
2022/12/05 13:01:33;;;;;;;;;;;;;;;;;;5067552;28;19917;-69
2022/12/05 13:04:01;;;;;;;;;;;;;;;;;;5069002;28;19916;-68
2022/12/05 13:06:27;;;;;;;;;;;;;;;;;;5069245;28;20426;-67
2022/12/05 13:08:53;;;;;;;;;;;;;;;;;;5068770;28;19948;-70
2022/12/05 13:11:19;;;;;;;;;;;;;;;;;;5067177;28;20509;-70
2022/12/05 13:14:24;;;;;;;;;;;;;;;;;;5084939;27;19923;-69
2022/12/05 13:16:50;;;;;;;;;;;;;;;;;;5062327;28;19912;-69
2022/12/05 13:19:16;;;;;;;;;;;;;;;;;;5070098;28;20002;-70
2022/12/05 13:21:42;;;;;;;;;;;;;;;;;;5061229;28;20005;-67
2022/12/05 13:28:18;;;;;;;;;;;;;;;;;;5080765;28;19912;-67
2022/12/05 13:30:56;;;;;;;;;;;;;;;;;;5087827;28;19934;-70
2022/12/05 13:33:55;;;;;;;;;;;;;;;;;;5109161;27;19920;-69
2022/12/05 13:42:15;;;;;;;;;;;;;;;;;;5090523;28;20284;-68
2022/12/05 13:44:41;;;;;;;;;;;;;;;;;;5074974;28;19947;-69
2022/12/05 13:47:23;;;;;;;;;;;;;;;;;;5089271;27;19920;-69
2022/12/05 13:49:49;;;;;;;;;;;;;;;;;;5077977;28;19920;-68
2022/12/05 13:52:15;;;;;;;;;;;;;;;;;;5068088;28;19909;-69
2022/12/05 13:54:43;;;;;;;;;;;;;;;;;;5068266;28;19909;-69
2022/12/05 13:57:09;;;;;;;;;;;;;;;;;;5067819;28;19909;-69
2022/12/05 13:59:34;;;;;;;;;;;;;;;;;;5067410;28;19962;-70
2022/12/05 14:02:00;;;;;;;;;;;;;;;;;;5068035;28;19909;-71
2022/12/05 14:04:26;;;;;;;;;;;;;;;;;;5068028;28;19931;-69
2022/12/05 14:06:52;;;;;;;;;;;;;;;;;;5067506;28;19939;-70
2022/12/05 14:09:19;;;;;;;;;;;;;;;;;;5067908;28;19908;-71
2022/12/05 14:11:45;;;;;;;;;;;;;;;;;;5066947;28;20000;-71
2022/12/05 14:14:11;;;;;;;;;;;;;;;;;;5066843;28;20015;-71
2022/12/05 14:16:40;;;;;;;;;;;;;;;;;;5068251;28;19909;-70
2022/12/05 14:19:06;;;;;;;;;;;;;;;;;;5069570;28;19909;-70
2022/12/05 14:21:32;;;;;;;;;;;;;;;;;;5070100;28;19915;-71
2022/12/05 14:23:58;;;;;;;;;;;;;;;;;;5070383;28;19931;-70
2022/12/05 14:26:30;;;;;;;;;;;;;;;;;;5070267;28;19916;-70
2022/12/05 14:28:56;;;;;;;;;;;;;;;;;;5068967;28;20258;-70
2022/12/05 14:31:22;;;;;;;;;;;;;;;;;;5070116;28;20325;-69
2022/12/05 14:33:48;;;;;;;;;;;;;;;;;;5068567;28;19948;-68
2022/12/05 14:36:14;;;;;;;;;;;;;;;;;;5070021;28;19954;-69
2022/12/05 14:38:40;;;;;;;;;;;;;;;;;;5069912;28;20288;-69
2022/12/05 14:41:06;;;;;;;;;;;;;;;;;;5069510;28;19970;-69
2022/12/05 14:43:32;;;;;;;;;;;;;;;;;;5069755;28;20365;-69
2022/12/05 14:45:58;;;;;;;;;;;;;;;;;;5078431;28;19920;-69
2022/12/05 14:48:25;;;;;;;;;;;;;;;;;;5089667;28;19908;-69
2022/12/05 14:50:51;;;;;;;;;;;;;;;;;;5089875;28;19940;-69
2022/12/05 14:53:19;;;;;;;;;;;;;;;;;;5089891;28;19931;-70
2022/12/05 14:55:45;;;;;;;;;;;;;;;;;;5089607;28;19908;-69
2022/12/05 14:58:11;;;;;;;;;;;;;;;;;;5079163;28;19915;-70
2022/12/05 15:00:37;;;;;;;;;;;;;;;;;;5076364;28;19909;-71
2022/12/05 15:03:04;;;;;;;;;;;;;;;;;;5075953;28;20265;-71
2022/12/05 15:05:30;;;;;;;;;;;;;;;;;;5058178;28;19913;-70
2022/12/05 15:07:56;;;;;;;;;;;;;;;;;;5076149;28;19920;-71
2022/12/05 15:10:22;;;;;;;;;;;;;;;;;;5075793;28;19909;-71
2022/12/05 15:12:48;;;;;;;;;;;;;;;;;;5076145;28;19934;-69
2022/12/05 15:15:16;;;;;;;;;;;;;;;;;;5076163;28;19916;-70
2022/12/05 15:17:42;;;;;;;;;;;;;;;;;;5075699;28;20029;-69
2022/12/05 15:20:08;;;;;;;;;;;;;;;;;;5076056;28;19909;-70
2022/12/05 15:22:34;;;;;;;;;;;;;;;;;;5075525;28;20304;-70
2022/12/05 15:25:00;;;;;;;;;;;;;;;;;;5076190;28;20014;-70
2022/12/05 15:27:26;;;;;;;;;;;;;;;;;;5075877;28;19920;-70
2022/12/05 15:29:52;;;;;;;;;;;;;;;;;;5075503;28;20401;-69
2022/12/05 15:32:18;;;;;;;;;;;;;;;;;;5075877;28;19999;-69
2022/12/05 15:34:43;;;;;;;;;;;;;;;;;;5076214;28;20357;-70
2022/12/05 15:37:09;;;;;;;;;;;;;;;;;;5075516;28;19916;-71
2022/12/05 15:39:35;;;;;;;;;;;;;;;;;;5075426;28;20368;-69
2022/12/05 15:42:01;;;;;;;;;;;;;;;;;;5075664;28;20285;-70
2022/12/05 15:44:27;;;;;;;;;;;;;;;;;;5057322;28;19909;-70
2022/12/05 15:46:54;;;;;;;;;;;;;;;;;;5075363;28;19924;-70
2022/12/05 15:49:20;;;;;;;;;;;;;;;;;;5075563;28;19908;-70
2022/12/05 15:51:46;;;;;;;;;;;;;;;;;;5057021;28;19954;-71
2022/12/05 15:54:12;;;;;;;;;;;;;;;;;;5075560;28;20443;-70
2022/12/05 15:56:38;;;;;;;;;;;;;;;;;;5075229;28;20375;-70
2022/12/05 15:59:04;;;;;;;;;;;;;;;;;;5056790;28;19913;-71
2022/12/05 16:01:30;;;;;;;;;;;;;;;;;;5057263;28;19988;-70
2022/12/05 16:03:56;;;;;;;;;;;;;;;;;;5075231;28;19959;-70
2022/12/05 16:06:22;;;;;;;;;;;;;;;;;;5074705;28;19916;-70
2022/12/05 16:08:48;;;;;;;;;;;;;;;;;;5074122;28;19908;-70
2022/12/05 16:11:14;;;;;;;;;;;;;;;;;;5075002;28;20049;-70
2022/12/05 16:13:40;;;;;;;;;;;;;;;;;;5074679;28;19909;-70
2022/12/05 16:16:06;;;;;;;;;;;;;;;;;;5074959;28;19908;-70
2022/12/05 16:18:32;;;;;;;;;;;;;;;;;;5074813;28;19908;-70
2022/12/05 16:20:58;;;;;;;;;;;;;;;;;;5074423;28;20285;-69
2022/12/05 16:23:24;;;;;;;;;;;;;;;;;;5074780;28;19919;-70
2022/12/05 16:25:51;;;;;;;;;;;;;;;;;;5074900;28;19920;-70
2022/12/05 16:28:17;;;;;;;;;;;;;;;;;;5056650;28;19995;-70
2022/12/05 16:30:43;;;;;;;;;;;;;;;;;;5074643;28;20029;-70
2022/12/05 16:33:08;;;;;;;;;;;;;;;;;;5074222;28;19912;-70
2022/12/05 16:35:34;;;;;;;;;;;;;;;;;;5056553;28;19915;-70
2022/12/05 16:38:00;;;;;;;;;;;;;;;;;;5074523;28;19931;-70
2022/12/05 16:40:26;;;;;;;;;;;;;;;;;;5074190;28;19909;-70
2022/12/05 16:42:52;;;;;;;;;;;;;;;;;;5074410;28;19939;-70
2022/12/05 16:45:18;;;;;;;;;;;;;;;;;;5056220;28;19928;-70
2022/12/05 16:47:45;;;;;;;;;;;;;;;;;;5074046;28;19931;-70
2022/12/05 16:50:11;;;;;;;;;;;;;;;;;;5074609;28;19944;-70
2022/12/05 16:52:37;;;;;;;;;;;;;;;;;;5074183;28;19997;-71
2022/12/05 16:55:03;;;;;;;;;;;;;;;;;;5073721;28;19909;-71
2022/12/05 16:57:29;;;;;;;;;;;;;;;;;;5074050;28;19909;-71
2022/12/05 16:59:54;;;;;;;;;;;;;;;;;;5073889;28;19930;-71
2022/12/05 17:02:20;;;;;;;;;;;;;;;;;;5073489;28;19908;-71
2022/12/05 17:04:46;;;;;;;;;;;;;;;;;;5074362;28;20003;-71
2022/12/05 17:07:12;;;;;;;;;;;;;;;;;;5074098;28;20349;-71
2022/12/05 17:09:38;;;;;;;;;;;;;;;;;;5073520;28;19915;-70
2022/12/05 17:12:04;;;;;;;;;;;;;;;;;;5055892;28;19909;-71
2022/12/05 17:14:30;;;;;;;;;;;;;;;;;;5073964;28;19936;-70
2022/12/05 17:16:56;;;;;;;;;;;;;;;;;;5073252;28;19908;-71
2022/12/05 17:19:23;;;;;;;;;;;;;;;;;;5073923;28;19909;-71
2022/12/05 17:21:49;;;;;;;;;;;;;;;;;;5073581;28;19909;-70
2022/12/05 17:24:15;;;;;;;;;;;;;;;;;;5073415;28;20011;-71
2022/12/05 17:26:41;;;;;;;;;;;;;;;;;;5073726;28;20288;-71
2022/12/05 17:29:07;;;;;;;;;;;;;;;;;;5073513;28;19908;-71
2022/12/05 17:31:33;;;;;;;;;;;;;;;;;;5055735;28;19948;-70